Weather History for Paynesville, MN

Change the Weather History Date:

Monday, November 18, 2013

  Actual Average (KLJF) Record (KLJF)
Temperature  
Mean Temperature 26 °F -  
Max Temperature 32 °F 38 °F 64 °F (1953)
Min Temperature 19 °F 23 °F -1 °F (1989)
Degree Days  
Heating Degree Days 40    
Moisture  
Dew Point 20 °F    
Average Humidity 75    
Maximum Humidity 93    
Minimum Humidity 60    
Precipitation  
Precipitation 0.00 in - - ()
Sea Level Pressure  
Sea Level Pressure 30.10 in    
Wind  
Wind Speed 13 mph (WNW)    
Max Wind Speed 22 mph    
Max Gust Speed 34 mph    
Visibility 10 miles    
Events      
Averages and records for this station are not official NWS values.
T = Trace of Precipitation, MM = Missing Value Source: NWS Daily Summary

Daily Weather History Graph

Daily Weather History Graph

Search for Another Location

Airport:

Trip Planner

Search our weather history database for the weather conditions in past years. The results will help you decide how hot, cold, wet, or windy it might be!

Date:

Astronomy

Nov. 18, 2013 Rise Set
Actual Time 7:22 AM CST 4:45 PM CST
Civil Twilight 6:49 AM CST 5:18 PM CST
Nautical Twilight 6:13 AM CST 5:54 PM CST
Astronomical Twilight 5:38 AM CST 6:29 PM CST
Moon 5:48 PM CST (11/18) 8:12 AM CST (11/18)
Length of Visible Light 10h 28m
Length of Day
9h 23m
Full, 99% of the Moon is Illuminated
Nov 18
Full
Nov 25
Last Quarter
Dec 2
New
Dec 9
First Quarter
Dec 17
Full

Hourly Weather History & Observations

Time (CST) Temp. Windchill Dew Point Humidity Pressure Visibility Wind Dir Wind Speed Gust Speed Precip Events Conditions
12:12 AM 28.0 °F 14.3 °F 22.1 °F 78% 29.88 in 10.0 mi WNW 21.9 mph 28.8 mph N/A   Overcast
12:33 AM 27.9 °F 14.4 °F 21.9 °F 78% 29.88 in 10.0 mi WNW 20.7 mph 34.5 mph N/A   Overcast
12:52 AM 27.5 °F 13.9 °F 21.9 °F 80% 29.89 in 10.0 mi WNW 20.7 mph 34.5 mph N/A   Overcast
1:13 AM 27.5 °F 13.5 °F 21.9 °F 80% 29.89 in 10.0 mi WNW 21.9 mph 28.8 mph N/A   Overcast
1:32 AM 27.5 °F 15.9 °F 21.7 °F 79% 29.90 in 10.0 mi WNW 15.0 mph 26.5 mph N/A   Overcast
1:52 AM 27.5 °F 14.6 °F 22.1 °F 80% 29.90 in 10.0 mi WNW 18.4 mph 25.3 mph N/A   Overcast
2:13 AM 27.1 °F 14.1 °F 20.8 °F 77% 29.91 in 10.0 mi WNW 18.4 mph 27.6 mph N/A   Overcast
2:32 AM 27.1 °F 13.4 °F 20.3 °F 75% 29.92 in 10.0 mi WNW 20.7 mph 31.1 mph N/A   Overcast
2:53 AM 27.3 °F 15.6 °F 20.3 °F 75% 29.93 in 10.0 mi WNW 15.0 mph 28.8 mph N/A   Overcast
3:12 AM 27.3 °F 14.4 °F 20.7 °F 76% 29.94 in 10.0 mi WNW 18.4 mph 25.3 mph N/A   Overcast
3:33 AM 27.5 °F 14.6 °F 20.3 °F 74% 29.95 in 10.0 mi WNW 18.4 mph 25.3 mph N/A   Overcast
3:53 AM 27.5 °F 14.2 °F 20.1 °F 74% 29.96 in 10.0 mi WNW 19.6 mph 27.6 mph N/A   Overcast
4:13 AM 27.3 °F 15.2 °F 20.1 °F 74% 29.96 in 10.0 mi WNW 16.1 mph 24.2 mph N/A   Overcast
4:33 AM 27.1 °F 16.4 °F 20.3 °F 75% 29.97 in 10.0 mi WNW 12.7 mph 20.7 mph N/A   Overcast
4:52 AM 27.1 °F 16.9 °F 20.5 °F 76% 29.98 in 10.0 mi WNW 11.5 mph 23.0 mph N/A   Overcast
5:13 AM 27.1 °F 16.9 °F 21.0 °F 78% 29.99 in 10.0 mi WNW 11.5 mph 18.4 mph N/A   Overcast
5:33 AM 27.0 °F 16.1 °F 20.7 °F 77% 30.00 in 10.0 mi NW 12.7 mph 20.7 mph N/A   Overcast
5:52 AM 26.6 °F 14.7 °F 19.6 °F 75% 30.01 in 10.0 mi WNW 15.0 mph 23.0 mph N/A   Overcast
6:13 AM 26.4 °F 13.6 °F 19.4 °F 75% 30.01 in 10.0 mi WNW 17.3 mph 25.3 mph N/A   Overcast
6:32 AM 26.1 °F 15.0 °F 19.4 °F 76% 30.02 in 10.0 mi WNW 12.7 mph 20.7 mph N/A   Overcast
6:53 AM 25.5 °F 14.3 °F 19.0 °F 76% 30.03 in 10.0 mi NW 12.7 mph 18.4 mph N/A   Overcast
7:12 AM 25.3 °F 13.6 °F 19.0 °F 77% 30.04 in 10.0 mi NW 13.8 mph 20.7 mph N/A   Overcast
7:32 AM 25.5 °F 13.8 °F 19.2 °F 77% 30.05 in 10.0 mi NW 13.8 mph 18.4 mph N/A   Overcast
7:53 AM 25.7 °F 13.5 °F 19.0 °F 76% 30.06 in 10.0 mi NW 15.0 mph 20.7 mph N/A   Overcast
8:13 AM 25.7 °F 14.0 °F 19.0 °F 76% 30.07 in 10.0 mi NW 13.8 mph 21.9 mph N/A   Overcast
8:33 AM 25.9 °F 14.8 °F 18.9 °F 75% 30.08 in 10.0 mi NW 12.7 mph 20.7 mph N/A   Overcast
8:52 AM 26.2 °F 14.2 °F 18.7 °F 73% 30.09 in 10.0 mi NW 15.0 mph 23.0 mph N/A   Mostly Cloudy
9:13 AM 27.3 °F 16.1 °F 19.0 °F 71% 30.10 in 10.0 mi WNW 13.8 mph 23.0 mph N/A   Scattered Clouds
9:32 AM 27.3 °F 14.8 °F 18.7 °F 70% 30.11 in 10.0 mi NW 17.3 mph 23.0 mph N/A   Scattered Clouds
9:53 AM 28.0 °F 16.1 °F 19.0 °F 69% 30.12 in 10.0 mi WNW 16.1 mph 21.9 mph N/A   Scattered Clouds
10:13 AM 28.6 °F 17.7 °F 19.6 °F 69% 30.13 in 10.0 mi WNW 13.8 mph 19.6 mph N/A   Scattered Clouds
10:32 AM 28.4 °F 16.6 °F 19.2 °F 69% 30.14 in 10.0 mi WNW 16.1 mph 21.9 mph N/A   Scattered Clouds
10:53 AM 29.1 °F 17.9 °F 19.9 °F 69% 30.14 in 10.0 mi NW 15.0 mph 20.7 mph N/A   Scattered Clouds
11:12 AM 29.5 °F 18.4 °F 19.8 °F 67% 30.16 in 10.0 mi WNW 15.0 mph 20.7 mph N/A   Scattered Clouds
11:33 AM 30.6 °F 21.8 °F 20.1 °F 65% 30.16 in 10.0 mi WNW 10.4 mph 17.3 mph N/A   Scattered Clouds
11:53 AM 30.2 °F 20.8 °F 19.8 °F 65% 30.16 in 10.0 mi NW 11.5 mph - N/A   Scattered Clouds
12:12 PM 30.9 °F 21.7 °F 19.8 °F 63% 30.16 in 10.0 mi NW 11.5 mph 17.3 mph N/A   Scattered Clouds
12:33 PM 30.6 °F 20.7 °F 20.5 °F 66% 30.16 in 10.0 mi NW 12.7 mph 17.3 mph N/A   Scattered Clouds
12:53 PM 32.0 °F 23.6 °F 21.2 °F 64% 30.16 in 10.0 mi WNW 10.4 mph 17.3 mph N/A   Mostly Cloudy
1:12 PM 30.9 °F 21.7 °F 20.5 °F 65% 30.17 in 10.0 mi WNW 11.5 mph - N/A   Scattered Clouds
1:33 PM 31.8 °F 23.9 °F 20.8 °F 64% 30.17 in 10.0 mi West 9.2 mph 20.7 mph N/A   Clear
1:53 PM 32.0 °F 23.6 °F 21.0 °F 64% 30.17 in 10.0 mi WNW 10.4 mph - N/A   Scattered Clouds
2:13 PM 31.8 °F 24.6 °F 20.3 °F 62% 30.17 in 10.0 mi NW 8.1 mph - N/A   Clear
2:32 PM 32.0 °F 23.0 °F 20.8 °F 63% 30.17 in 10.0 mi NW 11.5 mph - N/A   Clear
2:53 PM 32.0 °F 23.6 °F 20.1 °F 62% 30.17 in 10.0 mi NW 10.4 mph - N/A   Clear
3:13 PM 32.0 °F 24.2 °F 19.9 °F 61% 30.17 in 10.0 mi NW 9.2 mph - N/A   Clear
3:33 PM 32.0 °F 25.6 °F 19.6 °F 60% 30.18 in 10.0 mi NW 6.9 mph - N/A   Clear
3:52 PM 31.6 °F 25.1 °F 19.0 °F 60% 30.18 in 10.0 mi WNW 6.9 mph - N/A   Clear
4:13 PM 31.1 °F 25.4 °F 19.8 °F 63% 30.18 in 10.0 mi NW 5.8 mph - N/A   Clear
4:33 PM 30.6 °F - 19.6 °F 64% 30.19 in 10.0 mi Calm Calm - N/A   Clear
4:53 PM 29.3 °F - 19.8 °F 68% 30.18 in 10.0 mi Calm Calm - N/A   Clear
5:13 PM 28.8 °F - 19.8 °F 69% 30.19 in 10.0 mi Calm Calm - N/A   Clear
5:33 PM 26.1 °F - 18.7 °F 74% 30.20 in 10.0 mi Calm Calm - N/A   Clear
5:52 PM 25.3 °F - 19.0 °F 77% 30.21 in 10.0 mi Calm Calm - N/A   Clear
6:13 PM 24.4 °F - 19.2 °F 81% 30.21 in 10.0 mi Calm Calm - N/A   Clear
6:33 PM 22.6 °F - 18.9 °F 85% 30.21 in 10.0 mi Calm Calm - N/A   Clear
6:53 PM 20.8 °F - 17.4 °F 87% 30.21 in 10.0 mi Calm Calm - N/A   Clear
7:12 PM 21.0 °F - 18.0 °F 88% 30.21 in 10.0 mi Calm Calm - N/A   Clear
7:33 PM 21.2 °F - 18.3 °F 89% 30.21 in 10.0 mi Calm Calm - N/A   Clear
7:53 PM 20.1 °F - 16.9 °F 87% 30.21 in 10.0 mi Calm Calm - N/A   Clear
8:13 PM 20.7 °F - 17.6 °F 88% 30.21 in 10.0 mi Calm Calm - N/A   Clear
8:33 PM 21.7 °F - 18.3 °F 87% 30.20 in 10.0 mi Calm Calm - N/A   Clear
8:53 PM 20.8 °F - 17.4 °F 87% 30.21 in 10.0 mi Calm Calm - N/A   Clear
9:13 PM 20.8 °F - 18.5 °F 91% 30.20 in 10.0 mi Calm Calm - N/A   Clear
9:32 PM 20.3 °F - 17.8 °F 90% 30.20 in 10.0 mi Calm Calm - N/A   Clear
9:52 PM 20.7 °F - 18.1 °F 90% 30.20 in 10.0 mi Calm Calm - N/A   Clear
10:13 PM 20.8 °F - 18.3 °F 90% 30.20 in 10.0 mi Calm Calm - N/A   Clear
10:32 PM 21.6 °F 16.8 °F 17.6 °F 85% 30.21 in 10.0 mi SSE 3.5 mph - N/A   Clear
10:53 PM 24.8 °F - 20.3 °F 83% 30.21 in 10.0 mi Calm Calm - N/A   Clear
11:13 PM 19.0 °F - 16.0 °F 88% 30.23 in 10.0 mi Calm Calm - N/A   Clear
11:32 PM 19.6 °F - 17.8 °F 93% 30.22 in 10.0 mi Calm Calm - N/A   Clear
11:53 PM 19.2 °F - 17.2 °F 92% 30.22 in 10.0 mi Calm Calm - N/A   Clear